createdAt,value
2019-04-03T00:00:00.083Z,13.62
2019-04-03T00:02:26.426Z,14.00
2019-04-03T00:04:52.572Z,14.45
2019-04-03T00:07:18.886Z,14.71
2019-04-03T00:09:45.025Z,14.83
2019-04-03T00:12:11.214Z,15.00
2019-04-03T00:14:37.383Z,15.08
2019-04-03T00:17:03.588Z,15.16
2019-04-03T00:19:29.775Z,14.99
2019-04-03T00:21:55.999Z,14.92
2019-04-03T00:24:22.978Z,14.52
2019-04-03T00:26:51.991Z,14.13
2019-04-03T00:29:17.574Z,14.45
2019-04-03T00:31:43.867Z,14.13
2019-04-03T00:34:10.123Z,14.64
2019-04-03T00:36:36.443Z,14.27
2019-04-03T00:39:05.944Z,14.17
2019-04-03T00:41:32.229Z,14.15
2019-04-03T00:43:58.444Z,13.99
2019-04-03T00:46:25.178Z,14.20
2019-04-03T00:48:51.569Z,14.21
2019-04-03T00:51:17.765Z,14.20
2019-04-03T00:53:44.359Z,14.12
2019-04-03T00:56:10.546Z,14.07
2019-04-03T00:58:38.859Z,13.97
2019-04-03T01:01:06.627Z,13.97
2019-04-03T01:03:32.799Z,13.68
2019-04-03T01:05:59.240Z,13.47
2019-04-03T01:08:25.465Z,13.40
2019-04-03T01:10:51.630Z,13.61
2019-04-03T01:13:18.100Z,13.46
2019-04-03T01:15:44.302Z,13.46
2019-04-03T01:18:10.586Z,12.90
2019-04-03T01:20:36.885Z,13.05
2019-04-03T01:23:03.046Z,13.20
2019-04-03T01:25:29.231Z,13.34
2019-04-03T01:27:55.420Z,13.44
2019-04-03T01:30:21.624Z,13.43
2019-04-03T01:32:47.784Z,13.45
2019-04-03T01:35:14.001Z,13.45
2019-04-03T01:37:40.273Z,13.49
2019-04-03T01:40:06.558Z,13.16
2019-04-03T01:42:32.772Z,13.34
2019-04-03T01:44:58.918Z,13.44
2019-04-03T01:47:27.367Z,13.36
2019-04-03T01:49:53.254Z,13.28
2019-04-03T01:52:19.406Z,13.27
2019-04-03T01:54:45.815Z,13.30
2019-04-03T01:57:11.983Z,13.35
2019-04-03T01:59:38.196Z,13.55
2019-04-03T02:02:04.442Z,13.59
2019-04-03T02:04:30.766Z,13.54
2019-04-03T02:06:56.910Z,13.49
2019-04-03T02:09:23.199Z,13.18
2019-04-03T02:11:49.825Z,13.17
2019-04-03T02:14:16.040Z,13.11
2019-04-03T02:16:42.217Z,13.11
2019-04-03T02:19:08.416Z,12.91
2019-04-03T02:21:34.720Z,13.03
2019-04-03T02:24:01.318Z,12.65
2019-04-03T02:26:28.041Z,12.26
2019-04-03T02:28:54.208Z,12.59
2019-04-03T02:31:20.575Z,12.69
2019-04-03T02:33:46.821Z,12.66
2019-04-03T02:36:13.256Z,12.70
2019-04-03T02:38:39.612Z,12.63
2019-04-03T02:41:06.112Z,12.60
2019-04-03T02:43:32.272Z,12.59
2019-04-03T02:45:58.426Z,12.53
2019-04-03T02:48:24.628Z,12.19
2019-04-03T02:50:50.987Z,12.32
2019-04-03T02:53:17.588Z,12.33
2019-04-03T02:55:45.706Z,12.46
2019-04-03T02:58:11.866Z,12.39
2019-04-03T03:00:38.044Z,12.40
2019-04-03T03:03:04.262Z,12.50
2019-04-03T03:05:30.387Z,12.44
2019-04-03T03:07:56.580Z,12.48
2019-04-03T03:10:22.801Z,12.48
2019-04-03T03:12:50.004Z,12.41
2019-04-03T03:15:16.361Z,12.42
2019-04-03T03:17:43.011Z,12.50
2019-04-03T03:20:09.168Z,12.52
2019-04-03T03:22:36.740Z,12.54
2019-04-03T03:25:05.374Z,12.52
2019-04-03T03:27:31.547Z,12.44
2019-04-03T03:29:59.734Z,12.26
2019-04-03T03:32:32.342Z,12.19
2019-04-03T03:35:07.440Z,12.12
2019-04-03T03:37:23.311Z,12.14
2019-04-03T03:39:50.343Z,12.27
2019-04-03T03:42:18.013Z,12.26
2019-04-03T03:44:46.086Z,12.16
2019-04-03T03:47:12.634Z,12.13
2019-04-03T03:49:39.895Z,12.13
2019-04-03T03:52:06.488Z,12.04
2019-04-03T03:54:33.280Z,11.99
2019-04-03T03:57:03.998Z,12.02
2019-04-03T03:59:29.236Z,12.00
2019-04-03T04:01:55.438Z,12.06
2019-04-03T04:04:21.873Z,12.08
2019-04-03T04:06:48.368Z,12.06
2019-04-03T04:09:17.478Z,12.06
2019-04-03T04:11:43.122Z,12.00
2019-04-03T04:14:10.335Z,12.01
2019-04-03T04:16:37.647Z,12.21
2019-04-03T04:19:05.490Z,12.33
2019-04-03T04:21:31.704Z,12.48
2019-04-03T04:23:57.984Z,12.64
2019-04-03T04:26:24.142Z,12.85
2019-04-03T04:28:50.316Z,13.02
2019-04-03T04:31:16.527Z,13.28
2019-04-03T04:33:42.928Z,13.57
2019-04-03T04:36:09.469Z,13.62
2019-04-03T04:38:35.794Z,13.78
2019-04-03T04:41:02.278Z,13.72
2019-04-03T04:43:28.460Z,13.76
2019-04-03T04:45:54.700Z,13.96
2019-04-03T04:48:21.420Z,14.02
2019-04-03T04:50:47.819Z,14.24
2019-04-03T04:53:14.277Z,14.41
2019-04-03T04:55:40.434Z,14.58
2019-04-03T04:58:06.608Z,14.43
2019-04-03T05:00:32.904Z,14.32
2019-04-03T05:03:01.086Z,14.49
2019-04-03T05:05:28.378Z,15.78
2019-04-03T05:07:55.254Z,16.67
2019-04-03T05:10:21.441Z,16.42
2019-04-03T05:12:47.600Z,15.98
2019-04-03T05:15:13.894Z,15.86
2019-04-03T05:17:40.078Z,15.99
2019-04-03T05:20:06.750Z,16.00
2019-04-03T05:22:33.345Z,16.36
2019-04-03T05:25:00.045Z,16.28
2019-04-03T05:27:26.412Z,16.32
2019-04-03T05:29:52.736Z,16.41
2019-04-03T05:32:18.928Z,15.92
2019-04-03T05:34:45.114Z,17.81
2019-04-03T05:37:12.037Z,17.30
2019-04-03T05:39:38.286Z,17.10
2019-04-03T05:42:04.466Z,16.64
2019-04-03T05:44:33.140Z,15.88
2019-04-03T05:47:00.015Z,14.28
2019-04-03T05:49:26.273Z,15.38
2019-04-03T05:51:52.500Z,15.70
2019-04-03T05:54:18.667Z,15.91
2019-04-03T05:56:44.839Z,16.40
2019-04-03T05:59:11.221Z,16.49
2019-04-03T06:01:37.385Z,16.68
2019-04-03T06:04:03.565Z,16.57
2019-04-03T06:06:29.767Z,17.54
2019-04-03T06:08:56.997Z,17.20
2019-04-03T06:11:23.462Z,17.40
2019-04-03T06:13:49.655Z,17.91
2019-04-03T06:16:16.817Z,19.36
2019-04-03T06:18:43.656Z,18.69
2019-04-03T06:21:09.851Z,18.98
2019-04-03T06:23:36.242Z,19.41
2019-04-03T06:26:03.112Z,17.15
2019-04-03T06:28:29.448Z,17.72
2019-04-03T06:30:56.739Z,17.79
2019-04-03T06:33:23.309Z,18.69
2019-04-03T06:35:50.476Z,18.82
2019-04-03T06:38:17.004Z,17.89
2019-04-03T06:40:43.326Z,19.17
2019-04-03T06:43:09.589Z,18.81
2019-04-03T06:45:36.218Z,19.41
2019-04-03T06:48:04.499Z,20.46
2019-04-03T06:50:30.532Z,18.92
2019-04-03T06:52:56.735Z,19.55
2019-04-03T06:55:24.813Z,19.16
2019-04-03T06:57:51.189Z,19.12
2019-04-03T07:00:17.715Z,17.98
2019-04-03T07:02:44.165Z,17.10
2019-04-03T07:05:11.038Z,17.96
2019-04-03T07:07:37.558Z,17.53
2019-04-03T07:10:05.381Z,18.80
2019-04-03T07:12:33.184Z,19.21
2019-04-03T07:14:59.446Z,19.35
2019-04-03T07:17:25.732Z,20.12
2019-04-03T07:19:51.953Z,21.25
2019-04-03T07:22:18.120Z,21.92
2019-04-03T07:24:44.267Z,20.92
2019-04-03T07:27:10.466Z,20.43
2019-04-03T07:29:36.621Z,19.19
2019-04-03T07:32:03.471Z,20.05
2019-04-03T07:34:29.738Z,19.81
2019-04-03T07:36:56.037Z,18.91
2019-04-03T07:39:22.180Z,20.08
2019-04-03T07:41:48.565Z,20.39
2019-04-03T07:44:14.798Z,20.19
2019-04-03T07:46:40.986Z,20.17
2019-04-03T07:49:09.075Z,19.69
2019-04-03T07:51:35.248Z,21.37
2019-04-03T07:54:04.331Z,19.54
2019-04-03T07:56:29.989Z,20.85
2019-04-03T07:58:57.980Z,20.05
2019-04-03T08:01:24.278Z,19.75
2019-04-03T08:03:52.110Z,19.55
2019-04-03T08:06:18.814Z,19.54
2019-04-03T08:08:45.180Z,20.53
2019-04-03T08:11:14.266Z,20.06
2019-04-03T08:13:39.622Z,20.14
2019-04-03T08:16:06.016Z,20.73
2019-04-03T08:18:32.523Z,20.96
2019-04-03T08:21:01.484Z,20.16
2019-04-03T08:23:26.867Z,20.11
2019-04-03T08:25:54.546Z,20.98
2019-04-03T08:28:21.187Z,20.04
2019-04-03T08:30:47.398Z,19.41
2019-04-03T08:33:17.901Z,21.10
2019-04-03T08:35:42.081Z,21.59
2019-04-03T08:38:08.268Z,21.67
2019-04-03T08:40:34.587Z,20.29
2019-04-03T08:43:01.346Z,21.05
2019-04-03T08:45:27.711Z,20.45
2019-04-03T08:47:54.045Z,21.87
2019-04-03T08:50:20.197Z,20.73
2019-04-03T08:52:46.713Z,20.12
2019-04-03T08:55:14.541Z,20.79
2019-04-03T08:57:41.127Z,21.13
2019-04-03T09:00:09.096Z,21.14
2019-04-03T09:02:35.518Z,23.01
2019-04-03T09:05:01.854Z,23.56
2019-04-03T09:07:28.053Z,24.35
2019-04-03T09:09:54.236Z,24.60
2019-04-03T09:12:20.815Z,23.22
2019-04-03T09:14:47.081Z,22.44
2019-04-03T09:17:13.398Z,22.60
2019-04-03T09:19:41.761Z,23.11
2019-04-03T09:22:07.664Z,23.57
2019-04-03T09:24:33.981Z,23.72
2019-04-03T09:27:00.168Z,22.71
2019-04-03T09:29:26.414Z,23.68
2019-04-03T09:31:55.879Z,23.13
2019-04-03T09:34:21.092Z,23.23
2019-04-03T09:36:47.656Z,24.87
2019-04-03T09:39:14.672Z,23.28
2019-04-03T09:41:41.340Z,23.59
2019-04-03T09:44:07.818Z,24.24
2019-04-03T09:46:34.052Z,24.38
2019-04-03T09:49:00.346Z,25.28
2019-04-03T09:51:26.520Z,24.55
2019-04-03T09:53:52.733Z,24.02
2019-04-03T09:56:19.268Z,23.60
2019-04-03T09:58:45.527Z,22.92
2019-04-03T10:01:15.721Z,23.15
2019-04-03T10:03:39.840Z,24.21
2019-04-03T10:06:05.990Z,24.02
2019-04-03T10:08:32.188Z,23.24
2019-04-03T10:10:58.381Z,22.50
2019-04-03T10:13:25.899Z,24.58
2019-04-03T10:15:52.712Z,24.38
2019-04-03T10:18:21.844Z,24.32
2019-04-03T10:20:48.679Z,24.66
2019-04-03T10:23:15.160Z,23.80
2019-04-03T10:25:41.321Z,23.55
2019-04-03T10:28:07.494Z,23.12
2019-04-03T10:30:33.956Z,23.84
2019-04-03T10:33:01.042Z,25.20
2019-04-03T10:35:27.507Z,24.86
2019-04-03T10:37:54.078Z,24.44
2019-04-03T10:40:23.540Z,24.92
2019-04-03T10:42:48.476Z,24.95
2019-04-03T10:45:16.176Z,23.23
2019-04-03T10:47:44.589Z,24.86
2019-04-03T10:50:11.291Z,24.53
2019-04-03T10:52:37.471Z,25.52
2019-04-03T10:55:05.124Z,24.91
2019-04-03T10:57:31.717Z,25.76
2019-04-03T10:59:59.441Z,25.14
2019-04-03T11:02:25.611Z,24.30
2019-04-03T11:04:51.862Z,24.43
2019-04-03T11:07:18.031Z,25.17
2019-04-03T11:09:44.529Z,24.27
2019-04-03T11:12:10.745Z,24.65
2019-04-03T11:14:39.032Z,25.12
2019-04-03T11:17:05.087Z,24.94
2019-04-03T11:19:31.239Z,26.53
2019-04-03T11:21:57.457Z,27.27
2019-04-03T11:24:23.719Z,26.36
2019-04-03T11:26:51.775Z,26.69
2019-04-03T11:29:18.176Z,26.74
2019-04-03T11:31:44.472Z,25.64
2019-04-03T11:34:12.580Z,27.48
2019-04-03T11:36:45.335Z,27.02
2019-04-03T11:39:15.148Z,26.39
2019-04-03T11:41:39.676Z,25.23
2019-04-03T11:44:05.895Z,25.13
2019-04-03T11:46:34.257Z,25.23
2019-04-03T11:49:00.283Z,25.19
2019-04-03T11:51:28.938Z,25.99
2019-04-03T11:53:54.703Z,26.97
2019-04-03T11:56:20.853Z,27.11
2019-04-03T11:58:47.048Z,26.04
2019-04-03T12:04:00.878Z,27.16
2019-04-03T12:06:27.402Z,27.48
2019-04-03T12:08:53.703Z,27.18
2019-04-03T12:11:19.897Z,26.46
2019-04-03T12:13:46.660Z,26.78
2019-04-03T12:16:23.896Z,25.51
2019-04-03T12:18:49.632Z,26.50
2019-04-03T12:21:18.309Z,28.00
2019-04-03T12:23:44.293Z,27.36
2019-04-03T12:26:11.344Z,27.51
2019-04-03T12:28:38.658Z,27.63
2019-04-03T12:31:05.079Z,26.96
2019-04-03T12:33:31.362Z,27.43
2019-04-03T12:36:00.807Z,27.24
2019-04-03T12:38:28.414Z,27.42
2019-04-03T12:40:54.650Z,26.56
2019-04-03T12:43:20.931Z,26.39
2019-04-03T12:45:47.107Z,27.36
2019-04-03T12:48:17.373Z,27.39
2019-04-03T12:50:43.964Z,27.33
2019-04-03T12:53:10.437Z,26.82
2019-04-03T12:55:37.024Z,27.09
2019-04-03T12:58:04.673Z,27.88
2019-04-03T13:00:31.517Z,28.15
2019-04-03T13:02:57.996Z,27.86
2019-04-03T13:05:24.328Z,27.25
2019-04-03T13:07:51.122Z,26.95
2019-04-03T13:10:17.865Z,26.96
2019-04-03T13:12:44.075Z,26.77
2019-04-03T13:15:10.971Z,27.40
2019-04-03T13:17:37.356Z,28.70
2019-04-03T13:20:06.121Z,27.23
2019-04-03T13:22:32.800Z,26.53
2019-04-03T13:24:59.006Z,26.14
2019-04-03T13:27:25.539Z,26.54
2019-04-03T13:29:52.259Z,27.43
2019-04-03T13:32:18.733Z,27.58
2019-04-03T13:34:44.942Z,27.73
2019-04-03T13:37:11.150Z,27.55
2019-04-03T13:39:37.398Z,27.76
2019-04-03T13:42:04.050Z,26.81
2019-04-03T13:44:30.226Z,27.33
2019-04-03T13:46:56.416Z,27.04
2019-04-03T13:49:22.685Z,27.23
2019-04-03T13:51:48.836Z,27.76
2019-04-03T13:54:15.287Z,27.57
2019-04-03T13:56:43.037Z,27.50
2019-04-03T13:59:09.813Z,27.24
2019-04-03T14:01:39.479Z,27.56
2019-04-03T14:04:04.855Z,28.06
2019-04-03T14:06:31.283Z,27.75
2019-04-03T14:08:58.545Z,27.85
2019-04-03T14:11:24.728Z,28.28
2019-04-03T14:13:50.902Z,27.98
2019-04-03T14:16:21.558Z,28.22
2019-04-03T14:18:45.867Z,28.42
2019-04-03T14:21:12.336Z,27.53
2019-04-03T14:23:40.998Z,27.99
2019-04-03T14:26:08.431Z,27.57
2019-04-03T14:28:35.585Z,27.33
2019-04-03T14:31:04.964Z,28.07
2019-04-03T14:33:41.805Z,27.73
2019-04-03T14:35:58.969Z,27.13
2019-04-03T14:38:27.719Z,26.75
2019-04-03T14:40:53.839Z,25.83
2019-04-03T14:43:22.053Z,25.37
2019-04-03T14:45:48.548Z,25.10
2019-04-03T14:48:14.998Z,25.79
2019-04-03T14:50:41.300Z,24.71
2019-04-03T14:53:07.530Z,24.30
2019-04-03T14:55:45.907Z,25.09
2019-04-03T14:58:01.936Z,25.11
2019-04-03T15:00:31.266Z,24.97
2019-04-03T15:02:57.568Z,24.67
2019-04-03T15:05:24.321Z,24.75
2019-04-03T15:07:50.917Z,25.03
2019-04-03T15:10:18.598Z,24.83
2019-04-03T15:12:44.906Z,23.18
2019-04-03T15:15:11.604Z,23.77
2019-04-03T15:17:38.258Z,23.89
2019-04-03T15:20:07.263Z,23.38
2019-04-03T15:22:33.662Z,23.72
2019-04-03T15:24:59.872Z,24.37
2019-04-03T15:27:28.158Z,23.37
2019-04-03T15:29:54.890Z,23.97
2019-04-03T15:32:21.079Z,24.47
2019-04-03T15:34:50.013Z,23.39
2019-04-03T15:37:15.840Z,23.71
2019-04-03T15:39:42.553Z,23.62
2019-04-03T15:42:08.825Z,23.77
2019-04-03T15:44:35.187Z,23.45
2019-04-03T15:47:02.250Z,24.08
2019-04-03T15:49:28.798Z,23.29
2019-04-03T15:51:54.990Z,22.99
2019-04-03T15:54:21.348Z,22.63
2019-04-03T15:56:47.553Z,22.24
2019-04-03T15:59:14.152Z,22.36
2019-04-03T16:01:40.533Z,22.13
2019-04-03T16:04:07.036Z,22.79
2019-04-03T16:06:35.327Z,21.70
2019-04-03T16:09:01.448Z,22.45
2019-04-03T16:11:29.840Z,21.98
2019-04-03T16:13:55.814Z,22.05
2019-04-03T16:16:22.028Z,22.30
2019-04-03T16:18:48.197Z,21.99
2019-04-03T16:21:17.630Z,22.25
2019-04-03T16:23:44.094Z,22.09
2019-04-03T16:26:10.405Z,21.42
2019-04-03T16:28:37.109Z,21.65
2019-04-03T16:31:03.722Z,22.56
2019-04-03T16:33:30.130Z,21.97
2019-04-03T16:35:56.344Z,22.01
2019-04-03T16:38:22.856Z,22.21
2019-04-03T16:40:49.228Z,22.44
2019-04-03T16:43:15.590Z,21.47
2019-04-03T16:45:41.783Z,21.97
2019-04-03T16:48:07.964Z,21.47
2019-04-03T16:50:34.156Z,21.54
2019-04-03T16:53:00.689Z,22.03
2019-04-03T16:55:26.941Z,20.87
2019-04-03T16:57:54.611Z,21.64
2019-04-03T17:00:21.771Z,20.72
2019-04-03T17:02:48.541Z,20.68
2019-04-03T17:05:15.204Z,20.45
2019-04-03T17:07:41.881Z,20.17
2019-04-03T17:10:09.945Z,20.12
2019-04-03T17:12:36.955Z,20.65
2019-04-03T17:15:05.617Z,19.49
2019-04-03T17:17:31.875Z,19.61
2019-04-03T17:19:58.594Z,20.15
2019-04-03T17:22:25.073Z,20.02
2019-04-03T17:24:54.370Z,20.28
2019-04-03T17:27:19.821Z,19.53
2019-04-03T17:29:47.401Z,20.20
2019-04-03T17:32:15.434Z,19.84
2019-04-03T17:34:43.391Z,19.30
2019-04-03T17:37:10.024Z,18.96
2019-04-03T17:39:36.304Z,18.01
2019-04-03T17:42:02.628Z,18.83
2019-04-03T17:44:28.783Z,18.41
2019-04-03T17:46:59.830Z,19.00
2019-04-03T17:49:28.298Z,19.48
2019-04-03T17:51:54.108Z,18.46
2019-04-03T17:54:20.300Z,19.23
2019-04-03T17:56:46.510Z,19.27
2019-04-03T17:59:12.669Z,19.23
2019-04-03T18:01:38.925Z,19.22
2019-04-03T18:04:05.169Z,19.42
2019-04-03T18:06:31.425Z,19.66
2019-04-03T18:08:57.612Z,19.63
2019-04-03T18:11:23.799Z,19.55
2019-04-03T18:13:51.043Z,19.39
2019-04-03T18:16:17.226Z,19.07
2019-04-03T18:18:43.431Z,19.06
2019-04-03T18:21:09.635Z,18.08
2019-04-03T18:23:35.929Z,18.58
2019-04-03T18:26:02.548Z,17.78
2019-04-03T18:28:28.848Z,17.97
2019-04-03T18:30:55.121Z,18.27
2019-04-03T18:33:21.314Z,17.85
2019-04-03T18:35:47.498Z,17.97
2019-04-03T18:38:13.679Z,18.07
2019-04-03T18:40:39.892Z,17.61
2019-04-03T18:43:06.145Z,16.90
2019-04-03T18:45:32.343Z,17.62
2019-04-03T18:47:58.662Z,18.13
2019-04-03T18:50:24.921Z,17.90
2019-04-03T18:52:51.312Z,17.15
2019-04-03T18:55:17.532Z,17.22
2019-04-03T18:57:43.801Z,16.95
2019-04-03T19:00:11.106Z,16.60
2019-04-03T19:02:37.344Z,17.65
2019-04-03T19:05:09.013Z,16.88
2019-04-03T19:07:35.131Z,16.51
2019-04-03T19:10:07.336Z,17.47
2019-04-03T19:12:35.418Z,17.20
2019-04-03T19:14:57.628Z,16.86
2019-04-03T19:17:24.838Z,17.20
2019-04-03T19:19:54.434Z,17.15
2019-04-03T19:22:19.773Z,17.10
2019-04-03T19:24:46.076Z,17.21
2019-04-03T19:27:12.246Z,17.38
2019-04-03T19:29:38.446Z,16.29
2019-04-03T19:32:04.654Z,16.55
2019-04-03T19:34:30.802Z,16.76
2019-04-03T19:36:56.959Z,16.15
2019-04-03T19:39:23.160Z,16.98
2019-04-03T19:41:49.348Z,17.06
2019-04-03T19:44:16.139Z,16.46
2019-04-03T19:46:43.745Z,16.83
2019-04-03T19:49:09.901Z,16.79
2019-04-03T19:51:37.558Z,17.00
2019-04-03T19:54:04.231Z,16.42
2019-04-03T19:56:30.393Z,16.48
2019-04-03T19:58:59.355Z,16.37
2019-04-03T20:01:24.701Z,16.37
2019-04-03T20:03:50.868Z,16.17
2019-04-03T20:06:17.048Z,15.92
2019-04-03T20:08:43.375Z,16.02
2019-04-03T20:11:09.662Z,15.51
2019-04-03T20:13:35.848Z,15.73
2019-04-03T20:16:02.126Z,16.23
2019-04-03T20:18:28.376Z,15.82
2019-04-03T20:20:54.569Z,15.92
2019-04-03T20:23:20.774Z,15.78
2019-04-03T20:25:46.944Z,15.99
2019-04-03T20:28:13.247Z,15.98
2019-04-03T20:30:39.665Z,15.91
2019-04-03T20:33:05.949Z,15.91
2019-04-03T20:35:32.106Z,16.19
2019-04-03T20:37:58.342Z,16.11
2019-04-03T20:40:24.537Z,15.13
2019-04-03T20:42:50.835Z,15.98
2019-04-03T20:45:18.855Z,15.90
2019-04-03T20:47:45.094Z,15.51
2019-04-03T20:50:11.452Z,15.42
2019-04-03T20:52:37.657Z,16.00
2019-04-03T20:55:07.077Z,15.84
2019-04-03T20:57:33.938Z,15.79
2019-04-03T21:00:03.238Z,15.37
2019-04-03T21:02:28.440Z,15.41
2019-04-03T21:04:54.644Z,14.86
2019-04-03T21:07:23.735Z,14.50
2019-04-03T21:09:48.905Z,14.66
2019-04-03T21:12:15.083Z,14.92
2019-04-03T21:14:41.951Z,14.34
2019-04-03T21:17:08.311Z,14.76
2019-04-03T21:19:34.508Z,15.07
2019-04-03T21:22:00.723Z,14.86
2019-04-03T21:24:26.864Z,14.48
2019-04-03T21:26:53.034Z,14.53
2019-04-03T21:29:19.346Z,15.08
2019-04-03T21:31:45.515Z,15.40
2019-04-03T21:34:11.790Z,15.22
2019-04-03T21:36:38.862Z,15.38
2019-04-03T21:39:06.177Z,15.16
2019-04-03T21:41:32.349Z,15.67
2019-04-03T21:43:59.964Z,15.15
2019-04-03T21:46:26.728Z,15.22
2019-04-03T21:48:52.883Z,15.37
2019-04-03T21:51:20.809Z,14.76
2019-04-03T21:53:47.321Z,14.90
2019-04-03T21:56:13.489Z,15.40
2019-04-03T21:58:40.338Z,15.09
2019-04-03T22:01:14.824Z,14.77
2019-04-03T22:03:41.636Z,15.25
2019-04-03T22:06:07.847Z,15.43
2019-04-03T22:08:34.035Z,15.59
2019-04-03T22:11:03.750Z,15.61
2019-04-03T22:13:28.481Z,15.48
2019-04-03T22:15:54.762Z,15.63
2019-04-03T22:18:23.507Z,15.80
2019-04-03T22:20:49.309Z,14.90
2019-04-03T22:23:15.597Z,15.57
2019-04-03T22:25:41.898Z,15.15
2019-04-03T22:28:08.110Z,14.78
2019-04-03T22:30:34.271Z,14.88
2019-04-03T22:33:00.475Z,15.19
2019-04-03T22:35:27.943Z,15.04
2019-04-03T22:37:54.576Z,14.87
2019-04-03T22:40:20.736Z,14.88
2019-04-03T22:42:47.048Z,14.84
2019-04-03T22:45:13.355Z,15.09
2019-04-03T22:47:39.523Z,15.12
2019-04-03T22:50:05.940Z,15.64
2019-04-03T22:52:32.190Z,15.54
2019-04-03T22:54:58.348Z,15.39
2019-04-03T22:57:24.574Z,14.95
2019-04-03T22:59:50.849Z,14.96
2019-04-03T23:02:17.026Z,14.71
2019-04-03T23:04:46.206Z,14.83
2019-04-03T23:07:11.477Z,15.10
2019-04-03T23:09:37.762Z,14.42
2019-04-03T23:12:04.090Z,14.57
2019-04-03T23:14:30.394Z,15.26
2019-04-03T23:16:56.592Z,15.22
2019-04-03T23:19:22.950Z,14.70
2019-04-03T23:21:49.258Z,14.76
2019-04-03T23:24:15.447Z,14.95
2019-04-03T23:26:41.780Z,14.65
2019-04-03T23:29:07.950Z,14.28
2019-04-03T23:31:34.218Z,13.90
2019-04-03T23:34:00.540Z,14.47
2019-04-03T23:36:26.808Z,14.07
2019-04-03T23:38:53.123Z,14.15
2019-04-03T23:41:19.479Z,14.49
2019-04-03T23:43:45.738Z,14.28
2019-04-03T23:46:12.828Z,14.46
2019-04-03T23:48:40.161Z,14.19
2019-04-03T23:51:06.325Z,13.70
2019-04-03T23:53:32.749Z,13.98
2019-04-03T23:55:59.177Z,13.76
2019-04-03T23:58:25.368Z,14.10
